createdAt,value
2019-04-11T00:00:42.401Z,5.20
2019-04-11T00:03:13.339Z,5.20
2019-04-11T00:05:43.687Z,5.20
2019-04-11T00:08:14.201Z,5.10
2019-04-11T00:10:45.052Z,5.10
2019-04-11T00:13:21.593Z,5.00
2019-04-11T00:15:48.575Z,5.10
2019-04-11T00:18:19.092Z,5.20
2019-04-11T00:20:50.532Z,5.10
2019-04-11T00:23:21.793Z,5.00
2019-04-11T00:25:52.325Z,5.20
2019-04-11T00:28:23.639Z,5.20
2019-04-11T00:30:54.668Z,5.10
2019-04-11T00:33:25.110Z,5.20
2019-04-11T00:35:55.657Z,5.20
2019-04-11T00:38:26.049Z,5.10
2019-04-11T00:40:57.492Z,5.00
2019-04-11T00:43:35.867Z,5.10
2019-04-11T00:46:01.815Z,5.10
2019-04-11T00:48:33.507Z,5.00
2019-04-11T00:51:03.851Z,4.90
2019-04-11T00:53:34.121Z,4.90
2019-04-11T00:56:04.381Z,5.00
2019-04-11T00:58:34.643Z,4.80
2019-04-11T01:01:04.995Z,4.70
2019-04-11T01:03:38.018Z,4.70
2019-04-11T01:06:08.562Z,4.70
2019-04-11T01:08:39.923Z,4.60
2019-04-11T01:11:11.896Z,4.70
2019-04-11T01:13:50.340Z,4.70
2019-04-11T01:16:33.356Z,4.70
2019-04-11T01:19:04.628Z,4.60
2019-04-11T01:21:34.919Z,4.60
2019-04-11T01:24:05.179Z,4.50
2019-04-11T01:26:35.433Z,4.60
2019-04-11T01:29:05.700Z,4.60
2019-04-11T01:31:38.309Z,4.70
2019-04-11T01:34:10.631Z,4.50
2019-04-11T01:36:41.219Z,4.60
2019-04-11T01:39:29.435Z,4.50
2019-04-11T01:42:00.746Z,4.40
2019-04-11T01:44:31.206Z,4.20
2019-04-11T01:47:02.344Z,4.20
2019-04-11T01:49:34.437Z,4.30
2019-04-11T01:52:05.051Z,4.30
2019-04-11T01:54:35.528Z,4.40
2019-04-11T01:57:05.876Z,4.30
2019-04-11T01:59:37.466Z,4.40
2019-04-11T02:02:11.854Z,4.40
2019-04-11T02:05:02.906Z,4.40
2019-04-11T02:07:34.297Z,4.50
2019-04-11T02:10:04.666Z,4.30
2019-04-11T02:12:35.283Z,4.30
2019-04-11T02:15:06.370Z,4.30
2019-04-11T02:17:37.023Z,4.20
2019-04-11T02:20:07.557Z,4.10
2019-04-11T02:22:40.418Z,4.10
2019-04-11T02:25:28.295Z,4.20
2019-04-11T02:28:00.174Z,4.30
2019-04-11T02:30:31.350Z,4.20
2019-04-11T02:33:00.968Z,4.10
2019-04-11T02:36:09.553Z,4.10
2019-04-11T02:38:41.086Z,4.10
2019-04-11T02:41:12.498Z,4.00
2019-04-11T02:43:44.527Z,3.80
2019-04-11T02:46:25.914Z,3.90
2019-04-11T02:48:47.367Z,3.90
2019-04-11T02:51:18.254Z,4.00
2019-04-11T02:53:49.556Z,4.00
2019-04-11T02:56:21.302Z,4.00
2019-04-11T02:58:52.291Z,4.10
2019-04-11T03:01:24.112Z,4.10
2019-04-11T03:03:56.541Z,4.00
2019-04-11T03:06:27.925Z,4.00
2019-04-11T03:08:59.336Z,4.00
2019-04-11T03:11:30.386Z,3.90
2019-04-11T03:14:01.268Z,3.90
2019-04-11T03:16:42.682Z,4.00
2019-04-11T03:19:17.995Z,3.90
2019-04-11T03:21:39.104Z,3.90
2019-04-11T03:24:10.778Z,3.80
2019-04-11T03:26:41.288Z,3.70
2019-04-11T03:29:12.850Z,3.70
2019-04-11T03:32:24.690Z,3.80
2019-04-11T03:37:18.962Z,3.70
2019-04-11T03:39:37.798Z,3.70
2019-04-11T03:42:03.950Z,3.70
2019-04-11T03:44:28.978Z,3.70
2019-04-11T03:47:11.242Z,3.60
2019-04-11T03:49:38.914Z,3.50
2019-04-11T03:52:01.185Z,3.50
2019-04-11T03:54:34.224Z,3.60
2019-04-11T03:57:05.506Z,3.50
2019-04-11T03:59:38.440Z,3.50
2019-04-11T04:02:10.104Z,3.50
2019-04-11T04:04:41.531Z,3.40
2019-04-11T04:07:14.119Z,3.30
2019-04-11T04:09:45.708Z,3.30
2019-04-11T04:12:16.184Z,3.40
2019-04-11T04:14:54.488Z,3.40
2019-04-11T04:17:27.792Z,3.40
2019-04-11T04:20:16.660Z,3.30
2019-04-11T04:22:57.619Z,3.40
2019-04-11T04:25:28.573Z,3.30
2019-04-11T04:27:59.552Z,3.20
2019-04-11T04:30:30.096Z,3.20
2019-04-11T04:33:00.763Z,3.20
2019-04-11T04:35:31.769Z,3.30
2019-04-11T04:38:05.189Z,3.20
2019-04-11T04:40:50.949Z,3.20
2019-04-11T04:43:09.673Z,3.20
2019-04-11T04:45:59.751Z,3.20
2019-04-11T04:48:14.147Z,3.20
2019-04-11T04:50:44.854Z,3.20
2019-04-11T04:53:16.071Z,3.20
2019-04-11T04:55:47.888Z,3.20
2019-04-11T04:58:20.800Z,3.10
2019-04-11T05:00:53.237Z,3.20
2019-04-11T05:03:24.394Z,3.20
2019-04-11T05:05:55.260Z,3.20
2019-04-11T05:08:27.180Z,3.20
2019-04-11T05:10:57.928Z,3.20
2019-04-11T05:13:30.045Z,3.30
2019-04-11T05:16:11.021Z,3.30
2019-04-11T05:18:32.277Z,3.40
2019-04-11T05:21:03.602Z,3.40
2019-04-11T05:23:33.890Z,3.40
2019-04-11T05:26:04.186Z,3.30
2019-04-11T05:28:35.322Z,3.30
2019-04-11T05:31:06.078Z,3.40
2019-04-11T05:33:37.001Z,3.70
2019-04-11T05:36:08.171Z,3.90
2019-04-11T05:38:38.497Z,4.80
2019-04-11T05:41:12.123Z,5.50
2019-04-11T05:43:41.683Z,6.60
2019-04-11T05:46:26.277Z,7.40
2019-04-11T05:48:45.750Z,8.20
2019-04-11T05:51:21.242Z,8.70
2019-04-11T05:53:50.077Z,8.90
2019-04-11T05:56:21.765Z,9.70
2019-04-11T05:58:53.747Z,10.40
2019-04-11T06:01:29.090Z,10.60
2019-04-11T06:04:03.783Z,11.50
2019-04-11T06:06:40.235Z,11.90
2019-04-11T06:09:16.806Z,12.00
2019-04-11T06:11:58.120Z,11.90
2019-04-11T06:14:35.437Z,11.80
2019-04-11T06:17:07.331Z,12.40
2019-04-11T06:19:42.369Z,12.80
2019-04-11T06:22:12.852Z,13.10
2019-04-11T06:24:50.504Z,13.70
2019-04-11T06:27:22.356Z,13.60
2019-04-11T06:29:59.784Z,13.70
2019-04-11T06:32:38.294Z,13.90
2019-04-11T06:35:19.945Z,13.90
2019-04-11T06:38:08.173Z,13.50
2019-04-11T06:40:48.112Z,13.40
2019-04-11T06:43:20.372Z,13.40
2019-04-11T06:46:11.478Z,13.80
2019-04-11T06:48:58.198Z,15.20
2019-04-11T06:51:30.296Z,15.30
2019-04-11T06:54:21.125Z,15.20
2019-04-11T06:56:52.331Z,16.60
2019-04-11T06:59:24.338Z,17.10
2019-04-11T07:02:07.551Z,17.50
2019-04-11T07:04:38.542Z,18.20
2019-04-11T07:07:11.102Z,18.90
2019-04-11T07:09:49.218Z,19.80
2019-04-11T07:12:30.788Z,18.70
2019-04-11T07:15:06.546Z,19.00
2019-04-11T07:17:55.055Z,18.70
2019-04-11T07:20:43.592Z,18.80
2019-04-11T07:23:32.932Z,18.00
2019-04-11T07:26:05.162Z,17.60
2019-04-11T07:28:43.874Z,15.60
2019-04-11T07:31:16.053Z,15.50
2019-04-11T07:34:03.946Z,17.30
2019-04-11T07:36:53.565Z,17.30
2019-04-11T07:39:25.897Z,16.90
2019-04-11T07:42:15.747Z,16.30
2019-04-11T07:44:57.615Z,15.70
2019-04-11T07:47:29.570Z,15.10
2019-04-11T07:50:02.321Z,14.20
2019-04-11T07:52:34.550Z,14.50
2019-04-11T07:55:06.684Z,15.30
2019-04-11T07:57:38.725Z,14.30
2019-04-11T08:00:17.173Z,13.50
2019-04-11T08:03:01.971Z,12.70
2019-04-11T08:05:46.689Z,11.70
2019-04-11T08:08:36.794Z,11.00
2019-04-11T08:11:17.866Z,10.70
2019-04-11T08:14:04.799Z,10.30
2019-04-11T08:16:53.174Z,9.70
2019-04-11T08:19:40.774Z,9.90
2019-04-11T08:22:32.836Z,10.00
2019-04-11T08:25:05.623Z,10.30
2019-04-11T08:28:00.733Z,10.40
2019-04-11T08:30:29.283Z,10.60
2019-04-11T08:33:07.389Z,10.90
2019-04-11T08:35:40.159Z,11.00
2019-04-11T08:38:16.784Z,12.00
2019-04-11T08:40:58.810Z,12.40
2019-04-11T08:43:31.223Z,13.10
2019-04-11T08:46:04.603Z,12.90
2019-04-11T08:48:39.416Z,12.70
2019-04-11T08:51:11.549Z,12.50
2019-04-11T08:53:44.872Z,13.20
2019-04-11T08:56:23.083Z,13.20
2019-04-11T08:59:24.914Z,13.10
2019-04-11T09:01:56.030Z,13.30
2019-04-11T09:04:46.487Z,13.60
2019-04-11T09:07:27.655Z,13.80
2019-04-11T09:10:15.689Z,13.60
2019-04-11T09:12:51.002Z,14.00
2019-04-11T09:15:26.645Z,14.50
2019-04-11T09:18:04.176Z,14.50
2019-04-11T09:20:47.888Z,14.90
2019-04-11T09:23:27.884Z,14.90
2019-04-11T09:26:02.062Z,14.80
2019-04-11T09:28:37.706Z,14.00
2019-04-11T09:31:27.477Z,14.20
2019-04-11T09:34:15.964Z,14.80
2019-04-11T09:36:47.786Z,15.20
2019-04-11T09:39:37.448Z,15.60
2019-04-11T09:42:10.491Z,15.20
2019-04-11T09:44:49.314Z,15.50
2019-04-11T09:47:30.466Z,15.60
2019-04-11T09:50:14.760Z,15.70
2019-04-11T09:52:49.665Z,16.20
2019-04-11T09:55:37.943Z,16.40
2019-04-11T09:58:13.563Z,17.10
2019-04-11T10:01:01.798Z,18.60
2019-04-11T10:03:34.542Z,17.60
2019-04-11T10:06:07.263Z,18.20
2019-04-11T10:08:39.573Z,18.20
2019-04-11T10:11:28.277Z,18.70
2019-04-11T10:14:01.534Z,19.50
2019-04-11T10:16:36.551Z,19.00
2019-04-11T10:19:24.343Z,19.20
2019-04-11T10:22:13.081Z,19.50
2019-04-11T10:24:46.249Z,21.70
2019-04-11T10:27:26.985Z,22.80
2019-04-11T10:30:15.228Z,21.70
2019-04-11T10:32:52.984Z,20.30
2019-04-11T10:35:50.338Z,18.10
2019-04-11T10:38:22.498Z,17.30
2019-04-11T10:41:00.872Z,18.80
2019-04-11T10:43:32.790Z,19.70
2019-04-11T10:46:13.328Z,19.00
2019-04-11T10:48:46.993Z,17.80
2019-04-11T10:51:29.673Z,16.40
2019-04-11T10:54:02.838Z,16.70
2019-04-11T10:56:34.655Z,18.40
2019-04-11T10:59:05.169Z,18.10
2019-04-11T11:01:37.222Z,18.50
2019-04-11T11:04:27.646Z,20.30
2019-04-11T11:07:13.702Z,20.80
2019-04-11T11:10:03.662Z,20.60
2019-04-11T11:12:35.509Z,20.60
2019-04-11T11:15:13.601Z,20.00
2019-04-11T11:18:31.933Z,19.50
2019-04-11T11:20:55.126Z,19.00
2019-04-11T11:26:41.216Z,16.20
2019-04-11T11:29:26.527Z,15.40
2019-04-11T11:31:58.658Z,16.10
2019-04-11T11:34:30.593Z,18.00
2019-04-11T11:37:02.672Z,18.50
2019-04-11T11:39:35.576Z,18.80
2019-04-11T11:42:24.095Z,19.10
2019-04-11T11:44:57.193Z,18.80
2019-04-11T11:47:45.972Z,17.70
2019-04-11T11:50:20.097Z,17.20
2019-04-11T11:53:10.305Z,16.50
2019-04-11T11:55:41.268Z,16.50
2019-04-11T11:58:18.124Z,16.40
2019-04-11T12:00:52.259Z,17.00
2019-04-11T12:03:35.234Z,18.80
2019-04-11T12:06:07.304Z,19.50
2019-04-11T12:08:51.512Z,19.50
2019-04-11T12:11:24.099Z,21.10
2019-04-11T12:13:56.098Z,21.30
2019-04-11T12:16:39.844Z,20.50
2019-04-11T12:19:16.017Z,20.60
2019-04-11T12:21:46.339Z,20.10
2019-04-11T12:24:18.168Z,18.40
2019-04-11T12:26:56.063Z,17.60
2019-04-11T12:29:30.226Z,17.40
2019-04-11T12:32:01.500Z,18.00
2019-04-11T12:34:51.431Z,17.80
2019-04-11T12:37:29.541Z,18.10
2019-04-11T12:40:09.572Z,18.90
2019-04-11T12:42:47.237Z,19.30
2019-04-11T12:45:24.839Z,19.30
2019-04-11T12:47:55.117Z,19.30
2019-04-11T12:50:29.564Z,18.70
2019-04-11T12:53:04.331Z,18.10
2019-04-11T12:55:54.207Z,18.10
2019-04-11T12:58:26.225Z,18.50
2019-04-11T13:01:03.551Z,18.50
2019-04-11T13:03:44.387Z,18.30
2019-04-11T13:06:35.267Z,18.10
2019-04-11T13:09:07.011Z,17.20
2019-04-11T13:11:39.098Z,17.50
2019-04-11T13:14:17.351Z,17.60
2019-04-11T13:16:49.310Z,18.00
2019-04-11T13:19:37.285Z,17.90
2019-04-11T13:22:09.130Z,18.00
2019-04-11T13:24:56.237Z,18.60
2019-04-11T13:27:27.703Z,19.40
2019-04-11T13:30:05.587Z,18.90
2019-04-11T13:32:37.651Z,17.90
2019-04-11T13:35:28.827Z,17.20
2019-04-11T13:38:12.999Z,15.50
2019-04-11T13:40:44.860Z,14.90
2019-04-11T13:43:25.691Z,15.20
2019-04-11T13:46:12.379Z,16.20
2019-04-11T13:49:00.531Z,16.80
2019-04-11T13:51:32.442Z,17.20
2019-04-11T13:54:20.670Z,18.80
2019-04-11T13:57:09.074Z,19.70
2019-04-11T13:59:43.803Z,19.10
2019-04-11T14:02:15.923Z,18.50
2019-04-11T14:04:47.756Z,17.70
2019-04-11T14:07:23.680Z,17.00
2019-04-11T14:10:11.886Z,16.70
2019-04-11T14:12:42.455Z,16.30
2019-04-11T14:15:22.419Z,15.60
2019-04-11T14:17:54.331Z,16.10
2019-04-11T14:20:35.339Z,16.80
2019-04-11T14:23:13.772Z,16.50
2019-04-11T14:25:50.899Z,17.20
2019-04-11T14:28:22.882Z,16.60
2019-04-11T14:31:06.538Z,16.20
2019-04-11T14:33:38.371Z,15.70
2019-04-11T14:36:12.955Z,15.30
2019-04-11T14:38:47.571Z,15.20
2019-04-11T14:41:24.264Z,14.70
2019-04-11T14:44:02.135Z,14.50
2019-04-11T14:46:50.257Z,14.50
2019-04-11T14:49:20.437Z,14.10
2019-04-11T14:52:01.318Z,14.70
2019-04-11T14:54:33.220Z,15.60
2019-04-11T14:57:31.218Z,15.30
2019-04-11T15:00:08.628Z,15.70
2019-04-11T15:02:48.011Z,16.70
2019-04-11T15:05:31.710Z,16.90
2019-04-11T15:08:01.959Z,15.50
2019-04-11T15:10:33.815Z,13.80
2019-04-11T15:13:26.292Z,13.50
2019-04-11T15:16:01.300Z,13.00
2019-04-11T15:18:32.939Z,12.70
2019-04-11T15:21:06.784Z,12.70
2019-04-11T15:23:38.353Z,12.20
2019-04-11T15:26:16.265Z,12.40
2019-04-11T15:28:54.326Z,12.70
2019-04-11T15:31:39.235Z,13.10
2019-04-11T15:34:21.919Z,13.80
2019-04-11T15:37:05.531Z,13.60
2019-04-11T15:39:53.495Z,13.80
2019-04-11T15:42:34.504Z,13.70
2019-04-11T15:45:13.449Z,13.70
2019-04-11T15:47:46.739Z,13.60
2019-04-11T15:50:35.711Z,13.40
2019-04-11T15:53:06.721Z,13.00
2019-04-11T15:55:55.702Z,13.00
2019-04-11T15:58:33.574Z,12.90
2019-04-11T16:01:20.647Z,12.80
2019-04-11T16:03:52.499Z,12.70
2019-04-11T16:06:26.896Z,12.70
2019-04-11T16:09:01.825Z,12.60
2019-04-11T16:11:56.067Z,12.50
2019-04-11T16:14:26.373Z,12.60
2019-04-11T16:16:58.604Z,12.40
2019-04-11T16:19:30.250Z,12.50
2019-04-11T16:22:06.088Z,12.70
2019-04-11T16:24:38.047Z,12.20
2019-04-11T16:27:26.090Z,12.30
2019-04-11T16:30:07.924Z,12.40
2019-04-11T16:32:40.347Z,12.60
2019-04-11T16:35:27.136Z,12.40
2019-04-11T16:38:11.136Z,12.60
2019-04-11T16:40:45.530Z,12.70
2019-04-11T16:43:15.735Z,12.70
2019-04-11T16:46:05.842Z,13.00
2019-04-11T16:48:36.182Z,12.90
2019-04-11T16:51:06.467Z,12.80
2019-04-11T16:53:36.737Z,12.70
2019-04-11T16:56:06.938Z,12.60
2019-04-11T16:58:37.250Z,12.30
2019-04-11T17:01:10.199Z,12.20
2019-04-11T17:03:40.378Z,12.20
2019-04-11T17:06:12.216Z,12.20
2019-04-11T17:08:48.144Z,12.20
2019-04-11T17:11:19.688Z,12.00
2019-04-11T17:13:50.269Z,11.70
2019-04-11T17:16:20.731Z,11.70
2019-04-11T17:18:50.985Z,11.80
2019-04-11T17:21:23.246Z,11.40
2019-04-11T17:23:53.093Z,11.40
2019-04-11T17:26:23.933Z,11.10
2019-04-11T17:28:54.802Z,10.90
2019-04-11T17:31:25.947Z,10.70
2019-04-11T17:34:01.435Z,10.90
2019-04-11T17:36:30.718Z,11.00
2019-04-11T17:39:07.017Z,10.90
2019-04-11T17:41:41.748Z,10.60
2019-04-11T17:44:30.730Z,10.90
2019-04-11T17:47:00.987Z,11.00
2019-04-11T17:49:31.255Z,10.70
2019-04-11T17:52:05.046Z,10.70
2019-04-11T17:54:35.896Z,10.70
2019-04-11T17:57:06.170Z,10.40
2019-04-11T17:59:36.525Z,10.00
2019-04-11T18:02:10.370Z,9.80
2019-04-11T18:04:44.003Z,9.90
2019-04-11T18:07:12.522Z,10.10
2019-04-11T18:09:42.722Z,10.00
2019-04-11T18:12:12.923Z,9.90
2019-04-11T18:14:43.109Z,9.90
2019-04-11T18:17:13.323Z,10.10
2019-04-11T18:19:43.536Z,9.80
2019-04-11T18:22:14.362Z,9.60
2019-04-11T18:24:44.910Z,9.60
2019-04-11T18:27:15.134Z,9.80
2019-04-11T18:29:45.323Z,10.00
2019-04-11T18:32:15.532Z,10.20
2019-04-11T18:34:45.794Z,10.40
2019-04-11T18:37:16.026Z,10.40
2019-04-11T18:39:46.225Z,10.60
2019-04-11T18:42:22.511Z,10.80
2019-04-11T18:44:52.765Z,10.60
2019-04-11T18:47:23.028Z,10.70
2019-04-11T18:49:53.341Z,10.70
2019-04-11T18:52:25.424Z,10.80
2019-04-11T18:54:56.234Z,10.90
2019-04-11T18:57:26.580Z,11.10
2019-04-11T19:00:14.918Z,11.20
2019-04-11T19:02:45.211Z,11.30
2019-04-11T19:05:15.449Z,11.30
2019-04-11T19:07:45.677Z,11.40
2019-04-11T19:10:16.312Z,11.40
2019-04-11T19:13:03.892Z,11.10
2019-04-11T19:15:34.085Z,11.00
2019-04-11T19:18:06.607Z,11.00
2019-04-11T19:20:36.547Z,10.80
2019-04-11T19:23:07.957Z,10.60
2019-04-11T19:25:44.057Z,10.70
2019-04-11T19:28:14.739Z,10.60
2019-04-11T19:30:45.062Z,10.80
2019-04-11T19:33:15.283Z,10.90
2019-04-11T19:35:45.507Z,10.90
2019-04-11T19:38:17.366Z,11.00
2019-04-11T19:40:47.583Z,11.10
2019-04-11T19:43:19.698Z,11.20
2019-04-11T19:45:50.537Z,11.20
2019-04-11T19:48:22.670Z,11.00
2019-04-11T19:50:52.774Z,11.10
2019-04-11T19:53:23.022Z,11.30
2019-04-11T19:55:58.662Z,11.30
2019-04-11T19:58:30.559Z,11.40
2019-04-11T20:01:03.357Z,11.50
2019-04-11T20:03:33.638Z,11.50
2019-04-11T20:06:06.069Z,11.50
2019-04-11T20:08:37.938Z,11.40
2019-04-11T20:11:08.122Z,11.40
2019-04-11T20:13:38.327Z,11.40
2019-04-11T20:16:12.181Z,11.50
2019-04-11T20:18:50.216Z,11.40
2019-04-11T20:21:12.425Z,11.00
2019-04-11T20:23:42.730Z,10.80
2019-04-11T20:26:12.967Z,10.70
2019-04-11T20:28:50.872Z,10.60
2019-04-11T20:31:21.921Z,10.50
2019-04-11T20:33:52.161Z,10.50
2019-04-11T20:36:32.912Z,10.10
2019-04-11T20:38:54.584Z,10.10
2019-04-11T20:41:24.845Z,9.90
2019-04-11T20:43:59.154Z,9.80
2019-04-11T20:46:29.859Z,9.60
2019-04-11T20:49:00.376Z,9.90
2019-04-11T20:51:30.571Z,9.90
2019-04-11T20:54:00.774Z,9.90
2019-04-11T20:56:30.977Z,9.90
2019-04-11T20:59:10.349Z,9.90
2019-04-11T21:01:40.362Z,9.60
2019-04-11T21:04:13.734Z,9.60
2019-04-11T21:06:43.990Z,9.50
2019-04-11T21:09:14.378Z,9.40
2019-04-11T21:11:44.546Z,9.30
2019-04-11T21:14:14.786Z,9.40
2019-04-11T21:16:44.976Z,9.40
2019-04-11T21:19:15.177Z,9.40
2019-04-11T21:21:45.377Z,9.00
2019-04-11T21:24:15.577Z,9.00
2019-04-11T21:26:45.762Z,8.90
2019-04-11T21:29:15.964Z,8.60
2019-04-11T21:31:46.138Z,8.60
2019-04-11T21:34:16.404Z,8.70
2019-04-11T21:36:46.583Z,8.70
2019-04-11T21:39:16.779Z,8.80
2019-04-11T21:41:46.969Z,8.90
2019-04-11T21:44:23.874Z,8.80
2019-04-11T21:46:54.143Z,8.40
2019-04-11T21:49:24.332Z,8.50
2019-04-11T21:51:54.526Z,8.40
2019-04-11T21:54:24.726Z,8.50
2019-04-11T21:56:54.946Z,8.70
2019-04-11T21:59:28.314Z,8.80
2019-04-11T22:01:58.599Z,8.70
2019-04-11T22:04:31.124Z,8.80
2019-04-11T22:07:01.500Z,8.60
2019-04-11T22:09:35.566Z,8.60
2019-04-11T22:12:08.239Z,8.30
2019-04-11T22:14:42.037Z,8.50
2019-04-11T22:17:15.184Z,8.70
2019-04-11T22:19:45.885Z,8.80
2019-04-11T22:22:15.068Z,8.50
2019-04-11T22:24:45.269Z,8.40
2019-04-11T22:27:15.528Z,8.30
2019-04-11T22:29:45.751Z,8.40
2019-04-11T22:32:15.909Z,8.50
2019-04-11T22:34:47.026Z,8.60
2019-04-11T22:37:17.200Z,8.60
2019-04-11T22:39:47.409Z,8.40
2019-04-11T22:42:17.603Z,8.30
2019-04-11T22:44:47.782Z,8.40
2019-04-11T22:47:17.959Z,8.30
2019-04-11T22:49:48.248Z,8.30
2019-04-11T22:52:18.426Z,8.60
2019-04-11T22:54:48.842Z,8.50
2019-04-11T22:57:19.036Z,8.50
2019-04-11T22:59:49.313Z,8.30
2019-04-11T23:02:21.201Z,8.30
2019-04-11T23:04:51.563Z,8.20
2019-04-11T23:07:21.741Z,8.40
2019-04-11T23:09:52.016Z,8.50
2019-04-11T23:12:22.172Z,8.60
2019-04-11T23:14:52.577Z,8.40
2019-04-11T23:17:22.856Z,8.50
2019-04-11T23:19:53.114Z,8.60
2019-04-11T23:22:23.310Z,8.70
2019-04-11T23:24:53.633Z,8.80
2019-04-11T23:27:23.886Z,8.50
2019-04-11T23:29:54.065Z,8.50
2019-04-11T23:32:39.058Z,8.40
2019-04-11T23:35:09.234Z,8.50
2019-04-11T23:37:51.228Z,8.60
2019-04-11T23:40:23.211Z,8.60
2019-04-11T23:42:53.390Z,8.40
2019-04-11T23:45:25.262Z,8.30
2019-04-11T23:47:55.505Z,8.40
2019-04-11T23:50:25.982Z,8.50
2019-04-11T23:52:57.884Z,8.60
2019-04-11T23:55:30.728Z,8.40
2019-04-11T23:58:01.720Z,8.40
